Página principal
METAR-TAF:

METAR-TAF

Aeroportos :

Yap, Micronésia

latitude: 09-29N, longitude: 138-05E, altura: 28 m

Observação actual do tempo

O boletim foi feito há 13 minutos, às 11:50 UTC
Vento 5 kt com direcção variável
Temperatura 29°C
Humidade 84%
Pressão 1009 hPa
Visibilidade: 19.3 km
Poucas nuvensa uma altura de 1600 ft
Nuvens dispersasa uma altura de 13000 ft
Nuvens fragmentadasa uma altura de 30000 ft

METAR: PTYA 261150Z VRB05KT 12SM FEW016 SCT130 BKN300 29/26 A2981 RMK SLP096 8/171 T02920255 10313 20292 50017

Hora: 22:03 (12:03 UTC)

Previsão

O boletim foi feito há 32 minutos, às 11:31 UTC
Previsão válida de 26 às 12 UTC a 27 às 12 UTC
Vento 7 kt de es-nordeste
Visibilidade: 10 km
Nuvens dispersasa uma altura de 1600 ft
Nuvens dispersasa uma altura de 13000 ft
Nuvens fragmentadasa uma altura de 30000 ft
aguaceiros nas vizinhanças

TAF: PTYA 261131Z 2612/2712 07007KT P6SM VCSH SCT016 SCT130 BKN300

Observações e previsões do tempo de mais de 4000 aeroportos (mensagens METAR e TAF).

As estações disponíveis são os pontos amarelos e vermelhos sobre o mapa.

Mova o rato sobre o mapa para ver o nome da estação.

Depois clique no ponto para visualizar as observações e previsões meteorológicas.

Para alterar o mapa : clique nos botões verdes com uma cruz preta para aumentar o zoom; no botão verde com uma pitada de zoom; ou nas setas verdes para mapas adjacentes.


METAR-TAF: